sensor_id;sensor_type;location;lat;lon;timestamp;P1;durP1;ratioP1;P2;durP2;ratioP2
55146;SDS011;41039;49.830;23.988;2024-01-11T00:01:12;28.17;;;22.65;;
55146;SDS011;41039;49.830;23.988;2024-01-11T00:03:37;30.35;;;23.92;;
55146;SDS011;41039;49.830;23.988;2024-01-11T00:06:03;29.65;;;24.27;;
55146;SDS011;41039;49.830;23.988;2024-01-11T00:08:29;28.55;;;24.00;;
55146;SDS011;41039;49.830;23.988;2024-01-11T00:10:54;27.50;;;23.30;;
55146;SDS011;41039;49.830;23.988;2024-01-11T00:13:19;27.47;;;23.13;;
55146;SDS011;41039;49.830;23.988;2024-01-11T00:15:44;25.77;;;22.33;;
55146;SDS011;41039;49.830;23.988;2024-01-11T00:18:10;28.70;;;22.55;;
55146;SDS011;41039;49.830;23.988;2024-01-11T00:20:35;27.58;;;23.30;;
55146;SDS011;41039;49.830;23.988;2024-01-11T00:32:16;28.38;;;23.33;;
55146;SDS011;41039;49.830;23.988;2024-01-11T00:34:41;26.08;;;22.00;;
55146;SDS011;41039;49.830;23.988;2024-01-11T00:37:06;26.20;;;23.13;;
55146;SDS011;41039;49.830;23.988;2024-01-11T00:39:31;26.75;;;22.90;;
55146;SDS011;41039;49.830;23.988;2024-01-11T00:41:57;26.38;;;22.02;;
55146;SDS011;41039;49.830;23.988;2024-01-11T00:44:22;26.63;;;21.90;;
55146;SDS011;41039;49.830;23.988;2024-01-11T00:46:47;23.35;;;19.80;;
55146;SDS011;41039;49.830;23.988;2024-01-11T00:49:13;24.63;;;21.27;;
55146;SDS011;41039;49.830;23.988;2024-01-11T00:51:38;25.93;;;20.97;;
55146;SDS011;41039;49.830;23.988;2024-01-11T00:54:03;24.67;;;20.53;;
55146;SDS011;41039;49.830;23.988;2024-01-11T00:56:28;25.23;;;20.00;;
55146;SDS011;41039;49.830;23.988;2024-01-11T00:58:53;24.53;;;20.87;;
55146;SDS011;41039;49.830;23.988;2024-01-11T01:01:19;24.63;;;20.70;;
55146;SDS011;41039;49.830;23.988;2024-01-11T01:03:44;23.30;;;19.80;;
55146;SDS011;41039;49.830;23.988;2024-01-11T01:06:09;24.03;;;19.63;;
55146;SDS011;41039;49.830;23.988;2024-01-11T01:08:34;24.77;;;20.17;;
55146;SDS011;41039;49.830;23.988;2024-01-11T01:11:00;24.38;;;20.30;;
55146;SDS011;41039;49.830;23.988;2024-01-11T01:13:25;24.10;;;19.17;;
55146;SDS011;41039;49.830;23.988;2024-01-11T01:15:50;23.97;;;19.97;;
55146;SDS011;41039;49.830;23.988;2024-01-11T01:18:16;25.75;;;20.00;;
55146;SDS011;41039;49.830;23.988;2024-01-11T01:20:41;24.40;;;19.63;;
55146;SDS011;41039;49.830;23.988;2024-01-11T01:23:06;22.43;;;18.63;;
55146;SDS011;41039;49.830;23.988;2024-01-11T01:25:31;22.90;;;18.90;;
55146;SDS011;41039;49.830;23.988;2024-01-11T01:27:59;23.15;;;19.02;;
55146;SDS011;41039;49.830;23.988;2024-01-11T01:30:25;22.77;;;18.85;;
55146;SDS011;41039;49.830;23.988;2024-01-11T01:32:51;22.52;;;18.90;;
55146;SDS011;41039;49.830;23.988;2024-01-11T01:35:16;25.03;;;19.93;;
55146;SDS011;41039;49.830;23.988;2024-01-11T01:37:41;21.37;;;18.60;;
55146;SDS011;41039;49.830;23.988;2024-01-11T01:40:07;22.58;;;17.85;;
55146;SDS011;41039;49.830;23.988;2024-01-11T01:42:33;21.98;;;18.70;;
55146;SDS011;41039;49.830;23.988;2024-01-11T01:44:58;23.40;;;19.50;;
55146;SDS011;41039;49.830;23.988;2024-01-11T01:47:24;22.55;;;18.83;;
55146;SDS011;41039;49.830;23.988;2024-01-11T01:49:49;20.48;;;16.38;;
55146;SDS011;41039;49.830;23.988;2024-01-11T01:52:15;22.67;;;17.83;;
55146;SDS011;41039;49.830;23.988;2024-01-11T01:54:41;21.05;;;16.92;;
55146;SDS011;41039;49.830;23.988;2024-01-11T01:57:06;19.87;;;16.53;;
55146;SDS011;41039;49.830;23.988;2024-01-11T01:59:32;20.30;;;16.95;;
55146;SDS011;41039;49.830;23.988;2024-01-11T02:01:58;20.95;;;17.33;;
55146;SDS011;41039;49.830;23.988;2024-01-11T02:04:23;20.75;;;17.35;;
55146;SDS011;41039;49.830;23.988;2024-01-11T02:06:48;20.65;;;16.27;;
55146;SDS011;41039;49.830;23.988;2024-01-11T02:09:14;18.83;;;15.85;;
55146;SDS011;41039;49.830;23.988;2024-01-11T02:11:41;19.20;;;16.25;;
55146;SDS011;41039;49.830;23.988;2024-01-11T02:14:06;19.08;;;16.48;;
55146;SDS011;41039;49.830;23.988;2024-01-11T02:16:32;18.80;;;15.60;;
55146;SDS011;41039;49.830;23.988;2024-01-11T02:18:57;19.73;;;16.10;;
55146;SDS011;41039;49.830;23.988;2024-01-11T02:21:22;20.17;;;17.03;;
55146;SDS011;41039;49.830;23.988;2024-01-11T02:24:03;20.05;;;16.15;;
55146;SDS011;41039;49.830;23.988;2024-01-11T02:26:29;21.75;;;16.33;;
55146;SDS011;41039;49.830;23.988;2024-01-11T02:28:54;20.70;;;17.00;;
55146;SDS011;41039;49.830;23.988;2024-01-11T02:31:19;18.80;;;15.85;;
55146;SDS011;41039;49.830;23.988;2024-01-11T02:33:44;19.97;;;15.43;;
55146;SDS011;41039;49.830;23.988;2024-01-11T02:36:10;19.13;;;16.15;;
55146;SDS011;41039;49.830;23.988;2024-01-11T02:38:35;18.00;;;14.83;;
55146;SDS011;41039;49.830;23.988;2024-01-11T02:41:00;18.42;;;15.18;;
55146;SDS011;41039;49.830;23.988;2024-01-11T02:43:26;18.07;;;14.97;;
55146;SDS011;41039;49.830;23.988;2024-01-11T02:45:54;17.17;;;15.20;;
55146;SDS011;41039;49.830;23.988;2024-01-11T02:48:20;17.98;;;14.43;;
55146;SDS011;41039;49.830;23.988;2024-01-11T02:50:45;16.90;;;14.45;;
55146;SDS011;41039;49.830;23.988;2024-01-11T02:53:10;15.98;;;14.00;;
55146;SDS011;41039;49.830;23.988;2024-01-11T02:55:36;16.23;;;13.80;;
55146;SDS011;41039;49.830;23.988;2024-01-11T02:58:01;17.25;;;14.13;;
55146;SDS011;41039;49.830;23.988;2024-01-11T03:00:26;17.97;;;14.83;;
55146;SDS011;41039;49.830;23.988;2024-01-11T03:02:51;15.47;;;13.43;;
55146;SDS011;41039;49.830;23.988;2024-01-11T03:05:17;17.83;;;14.03;;
55146;SDS011;41039;49.830;23.988;2024-01-11T03:07:42;18.17;;;13.73;;
55146;SDS011;41039;49.830;23.988;2024-01-11T03:10:07;17.40;;;13.70;;
55146;SDS011;41039;49.830;23.988;2024-01-11T03:12:32;15.43;;;12.83;;
55146;SDS011;41039;49.830;23.988;2024-01-11T03:14:57;16.90;;;13.95;;
55146;SDS011;41039;49.830;23.988;2024-01-11T03:17:23;16.60;;;13.90;;
55146;SDS011;41039;49.830;23.988;2024-01-11T03:19:48;16.00;;;13.67;;
55146;SDS011;41039;49.830;23.988;2024-01-11T03:22:13;14.63;;;12.93;;
55146;SDS011;41039;49.830;23.988;2024-01-11T03:24:39;15.48;;;12.63;;
55146;SDS011;41039;49.830;23.988;2024-01-11T03:27:04;14.52;;;12.38;;
55146;SDS011;41039;49.830;23.988;2024-01-11T03:29:30;15.90;;;12.95;;
55146;SDS011;41039;49.830;23.988;2024-01-11T03:31:56;16.80;;;13.10;;
55146;SDS011;41039;49.830;23.988;2024-01-11T03:34:21;15.90;;;13.57;;
55146;SDS011;41039;49.830;23.988;2024-01-11T03:36:46;15.40;;;13.00;;
55146;SDS011;41039;49.830;23.988;2024-01-11T03:39:11;15.83;;;12.50;;
55146;SDS011;41039;49.830;23.988;2024-01-11T03:41:36;15.47;;;12.53;;
55146;SDS011;41039;49.830;23.988;2024-01-11T03:44:02;14.95;;;12.30;;
55146;SDS011;41039;49.830;23.988;2024-01-11T03:46:27;14.68;;;12.75;;
55146;SDS011;41039;49.830;23.988;2024-01-11T03:48:52;15.32;;;12.80;;
55146;SDS011;41039;49.830;23.988;2024-01-11T03:51:17;14.83;;;12.27;;
55146;SDS011;41039;49.830;23.988;2024-01-11T03:53:43;15.88;;;11.70;;
55146;SDS011;41039;49.830;23.988;2024-01-11T03:56:08;15.60;;;12.33;;
55146;SDS011;41039;49.830;23.988;2024-01-11T03:58:35;14.02;;;11.90;;
55146;SDS011;41039;49.830;23.988;2024-01-11T04:01:00;14.90;;;11.77;;
55146;SDS011;41039;49.830;23.988;2024-01-11T04:03:25;14.00;;;11.57;;
55146;SDS011;41039;49.830;23.988;2024-01-11T04:05:50;14.13;;;12.10;;
55146;SDS011;41039;49.830;23.988;2024-01-11T04:08:16;15.63;;;11.63;;
55146;SDS011;41039;49.830;23.988;2024-01-11T04:10:41;15.03;;;12.13;;
55146;SDS011;41039;49.830;23.988;2024-01-11T04:13:06;14.10;;;11.63;;
55146;SDS011;41039;49.830;23.988;2024-01-11T04:15:32;13.30;;;11.13;;
55146;SDS011;41039;49.830;23.988;2024-01-11T04:17:57;12.13;;;10.57;;
55146;SDS011;41039;49.830;23.988;2024-01-11T04:20:22;14.10;;;11.97;;
55146;SDS011;41039;49.830;23.988;2024-01-11T04:22:49;12.52;;;10.55;;
55146;SDS011;41039;49.830;23.988;2024-01-11T04:25:14;13.98;;;11.43;;
55146;SDS011;41039;49.830;23.988;2024-01-11T04:27:39;11.63;;;9.70;;
55146;SDS011;41039;49.830;23.988;2024-01-11T04:30:05;13.98;;;11.43;;
55146;SDS011;41039;49.830;23.988;2024-01-11T04:32:30;14.13;;;11.00;;
55146;SDS011;41039;49.830;23.988;2024-01-11T04:34:56;12.57;;;10.33;;
55146;SDS011;41039;49.830;23.988;2024-01-11T04:37:21;14.43;;;11.10;;
55146;SDS011;41039;49.830;23.988;2024-01-11T04:39:46;11.97;;;10.17;;
55146;SDS011;41039;49.830;23.988;2024-01-11T04:42:11;11.67;;;10.00;;
55146;SDS011;41039;49.830;23.988;2024-01-11T04:44:37;11.67;;;10.07;;
55146;SDS011;41039;49.830;23.988;2024-01-11T04:47:02;11.73;;;9.77;;
55146;SDS011;41039;49.830;23.988;2024-01-11T04:49:27;13.35;;;10.55;;
55146;SDS011;41039;49.830;23.988;2024-01-11T04:51:52;11.90;;;10.00;;
55146;SDS011;41039;49.830;23.988;2024-01-11T04:54:18;12.13;;;10.03;;
55146;SDS011;41039;49.830;23.988;2024-01-11T04:56:43;12.57;;;10.00;;
55146;SDS011;41039;49.830;23.988;2024-01-11T04:59:08;12.60;;;9.53;;
55146;SDS011;41039;49.830;23.988;2024-01-11T05:01:33;11.83;;;9.73;;
55146;SDS011;41039;49.830;23.988;2024-01-11T05:03:58;12.57;;;9.90;;
55146;SDS011;41039;49.830;23.988;2024-01-11T05:06:24;11.07;;;9.68;;
55146;SDS011;41039;49.830;23.988;2024-01-11T05:08:50;12.18;;;9.73;;
55146;SDS011;41039;49.830;23.988;2024-01-11T05:11:21;12.18;;;9.43;;
55146;SDS011;41039;49.830;23.988;2024-01-11T05:13:47;11.30;;;8.93;;
55146;SDS011;41039;49.830;23.988;2024-01-11T05:16:18;12.35;;;9.52;;
55146;SDS011;41039;49.830;23.988;2024-01-11T05:18:44;10.90;;;9.25;;
55146;SDS011;41039;49.830;23.988;2024-01-11T05:21:09;10.87;;;9.13;;
55146;SDS011;41039;49.830;23.988;2024-01-11T05:23:35;11.15;;;8.48;;
55146;SDS011;41039;49.830;23.988;2024-01-11T05:26:00;11.18;;;8.85;;
55146;SDS011;41039;49.830;23.988;2024-01-11T05:28:26;11.40;;;9.32;;
55146;SDS011;41039;49.830;23.988;2024-01-11T05:30:51;11.20;;;8.88;;
55146;SDS011;41039;49.830;23.988;2024-01-11T05:33:16;11.93;;;9.40;;
55146;SDS011;41039;49.830;23.988;2024-01-11T05:35:41;10.43;;;8.48;;
55146;SDS011;41039;49.830;23.988;2024-01-11T05:38:07;10.53;;;8.63;;
55146;SDS011;41039;49.830;23.988;2024-01-11T05:40:32;10.13;;;8.43;;
55146;SDS011;41039;49.830;23.988;2024-01-11T05:42:57;10.00;;;8.27;;
55146;SDS011;41039;49.830;23.988;2024-01-11T05:45:22;11.60;;;8.83;;
55146;SDS011;41039;49.830;23.988;2024-01-11T05:47:47;9.55;;;7.97;;
55146;SDS011;41039;49.830;23.988;2024-01-11T05:50:13;11.60;;;8.93;;
55146;SDS011;41039;49.830;23.988;2024-01-11T05:52:38;9.73;;;8.60;;
55146;SDS011;41039;49.830;23.988;2024-01-11T05:55:04;10.07;;;8.00;;
55146;SDS011;41039;49.830;23.988;2024-01-11T05:57:30;9.80;;;8.27;;
55146;SDS011;41039;49.830;23.988;2024-01-11T05:59:55;10.93;;;7.73;;
55146;SDS011;41039;49.830;23.988;2024-01-11T06:02:20;10.67;;;8.10;;
55146;SDS011;41039;49.830;23.988;2024-01-11T06:04:47;9.65;;;8.00;;
55146;SDS011;41039;49.830;23.988;2024-01-11T06:07:14;10.10;;;8.07;;
55146;SDS011;41039;49.830;23.988;2024-01-11T06:09:39;9.60;;;7.90;;
55146;SDS011;41039;49.830;23.988;2024-01-11T06:12:04;10.00;;;7.77;;
55146;SDS011;41039;49.830;23.988;2024-01-11T06:14:30;9.15;;;7.43;;
55146;SDS011;41039;49.830;23.988;2024-01-11T06:16:55;9.57;;;7.60;;
55146;SDS011;41039;49.830;23.988;2024-01-11T06:19:20;9.63;;;7.72;;
55146;SDS011;41039;49.830;23.988;2024-01-11T06:21:46;9.35;;;7.70;;
55146;SDS011;41039;49.830;23.988;2024-01-11T06:24:12;8.70;;;7.25;;
55146;SDS011;41039;49.830;23.988;2024-01-11T06:26:37;8.60;;;7.43;;
55146;SDS011;41039;49.830;23.988;2024-01-11T06:29:02;11.07;;;8.43;;
55146;SDS011;41039;49.830;23.988;2024-01-11T06:31:27;8.90;;;6.83;;
55146;SDS011;41039;49.830;23.988;2024-01-11T06:33:52;9.33;;;7.50;;
55146;SDS011;41039;49.830;23.988;2024-01-11T06:36:18;9.50;;;7.27;;
55146;SDS011;41039;49.830;23.988;2024-01-11T06:38:43;9.90;;;7.20;;
55146;SDS011;41039;49.830;23.988;2024-01-11T06:41:08;9.60;;;7.03;;
55146;SDS011;41039;49.830;23.988;2024-01-11T06:43:33;8.47;;;6.87;;
55146;SDS011;41039;49.830;23.988;2024-01-11T06:46:02;8.65;;;7.40;;
55146;SDS011;41039;49.830;23.988;2024-01-11T06:48:28;8.68;;;7.38;;
55146;SDS011;41039;49.830;23.988;2024-01-11T06:50:53;9.40;;;6.90;;
55146;SDS011;41039;49.830;23.988;2024-01-11T06:53:18;7.93;;;6.67;;
55146;SDS011;41039;49.830;23.988;2024-01-11T06:55:43;8.93;;;7.33;;
55146;SDS011;41039;49.830;23.988;2024-01-11T06:58:09;7.55;;;6.50;;
55146;SDS011;41039;49.830;23.988;2024-01-11T07:00:34;9.30;;;7.00;;
55146;SDS011;41039;49.830;23.988;2024-01-11T07:03:00;9.45;;;7.43;;
55146;SDS011;41039;49.830;23.988;2024-01-11T07:05:25;8.00;;;6.65;;
55146;SDS011;41039;49.830;23.988;2024-01-11T07:07:51;8.25;;;6.72;;
55146;SDS011;41039;49.830;23.988;2024-01-11T07:10:16;8.23;;;6.55;;
55146;SDS011;41039;49.830;23.988;2024-01-11T07:12:42;7.93;;;6.32;;
55146;SDS011;41039;49.830;23.988;2024-01-11T07:15:08;8.95;;;7.00;;
55146;SDS011;41039;49.830;23.988;2024-01-11T07:17:33;8.75;;;7.20;;
55146;SDS011;41039;49.830;23.988;2024-01-11T07:19:58;9.00;;;6.68;;
55146;SDS011;41039;49.830;23.988;2024-01-11T07:22:24;7.93;;;6.57;;
55146;SDS011;41039;49.830;23.988;2024-01-11T07:24:49;9.25;;;6.97;;
55146;SDS011;41039;49.830;23.988;2024-01-11T07:27:14;9.13;;;6.60;;
55146;SDS011;41039;49.830;23.988;2024-01-11T07:29:39;7.43;;;6.40;;
55146;SDS011;41039;49.830;23.988;2024-01-11T07:32:05;8.67;;;6.70;;
55146;SDS011;41039;49.830;23.988;2024-01-11T07:34:30;7.82;;;6.00;;
55146;SDS011;41039;49.830;23.988;2024-01-11T07:36:55;7.72;;;6.38;;
55146;SDS011;41039;49.830;23.988;2024-01-11T07:39:21;8.70;;;6.63;;
55146;SDS011;41039;49.830;23.988;2024-01-11T07:41:49;8.45;;;6.43;;
55146;SDS011;41039;49.830;23.988;2024-01-11T07:44:15;8.32;;;6.15;;
55146;SDS011;41039;49.830;23.988;2024-01-11T07:46:40;7.70;;;6.43;;
55146;SDS011;41039;49.830;23.988;2024-01-11T07:49:05;7.93;;;6.15;;
55146;SDS011;41039;49.830;23.988;2024-01-11T07:51:31;8.65;;;6.40;;
55146;SDS011;41039;49.830;23.988;2024-01-11T07:53:56;7.70;;;5.97;;
55146;SDS011;41039;49.830;23.988;2024-01-11T07:56:21;7.90;;;6.32;;
55146;SDS011;41039;49.830;23.988;2024-01-11T07:58:47;7.63;;;6.20;;
55146;SDS011;41039;49.830;23.988;2024-01-11T08:01:12;7.88;;;6.28;;
55146;SDS011;41039;49.830;23.988;2024-01-11T08:03:37;7.27;;;5.83;;
55146;SDS011;41039;49.830;23.988;2024-01-11T08:06:03;8.90;;;6.37;;
55146;SDS011;41039;49.830;23.988;2024-01-11T08:08:28;7.22;;;5.72;;
55146;SDS011;41039;49.830;23.988;2024-01-11T08:10:54;6.95;;;5.95;;
55146;SDS011;41039;49.830;23.988;2024-01-11T08:13:19;8.38;;;6.22;;
55146;SDS011;41039;49.830;23.988;2024-01-11T08:15:46;8.07;;;6.13;;
55146;SDS011;41039;49.830;23.988;2024-01-11T08:18:11;8.13;;;6.50;;
55146;SDS011;41039;49.830;23.988;2024-01-11T08:20:37;7.93;;;5.70;;
55146;SDS011;41039;49.830;23.988;2024-01-11T08:23:03;9.45;;;6.75;;
55146;SDS011;41039;49.830;23.988;2024-01-11T08:25:28;10.23;;;6.15;;
55146;SDS011;41039;49.830;23.988;2024-01-11T08:27:54;8.65;;;6.35;;
55146;SDS011;41039;49.830;23.988;2024-01-11T08:30:19;7.88;;;6.35;;
55146;SDS011;41039;49.830;23.988;2024-01-11T08:32:44;7.18;;;5.80;;
55146;SDS011;41039;49.830;23.988;2024-01-11T08:35:10;8.00;;;6.60;;
55146;SDS011;41039;49.830;23.988;2024-01-11T08:37:36;8.18;;;6.43;;
55146;SDS011;41039;49.830;23.988;2024-01-11T08:40:02;7.70;;;5.90;;
55146;SDS011;41039;49.830;23.988;2024-01-11T08:42:29;8.15;;;6.10;;
55146;SDS011;41039;49.830;23.988;2024-01-11T08:44:54;7.57;;;6.17;;
55146;SDS011;41039;49.830;23.988;2024-01-11T08:47:20;8.17;;;5.83;;
55146;SDS011;41039;49.830;23.988;2024-01-11T08:49:45;8.88;;;6.20;;
55146;SDS011;41039;49.830;23.988;2024-01-11T08:52:10;7.60;;;6.23;;
55146;SDS011;41039;49.830;23.988;2024-01-11T08:54:35;8.83;;;6.47;;
55146;SDS011;41039;49.830;23.988;2024-01-11T08:57:00;9.73;;;7.07;;
55146;SDS011;41039;49.830;23.988;2024-01-11T08:59:26;9.65;;;6.90;;
55146;SDS011;41039;49.830;23.988;2024-01-11T09:01:52;8.70;;;6.45;;
55146;SDS011;41039;49.830;23.988;2024-01-11T09:04:17;9.30;;;6.88;;
55146;SDS011;41039;49.830;23.988;2024-01-11T09:06:43;8.82;;;6.70;;
55146;SDS011;41039;49.830;23.988;2024-01-11T09:09:08;7.88;;;6.53;;
55146;SDS011;41039;49.830;23.988;2024-01-11T09:11:35;9.65;;;6.80;;
55146;SDS011;41039;49.830;23.988;2024-01-11T09:14:00;9.23;;;6.80;;
55146;SDS011;41039;49.830;23.988;2024-01-11T09:16:25;10.05;;;6.72;;
55146;SDS011;41039;49.830;23.988;2024-01-11T09:18:50;8.73;;;6.27;;
55146;SDS011;41039;49.830;23.988;2024-01-11T09:21:16;8.77;;;6.85;;
55146;SDS011;41039;49.830;23.988;2024-01-11T09:23:41;8.55;;;5.78;;
55146;SDS011;41039;49.830;23.988;2024-01-11T09:26:06;8.23;;;6.13;;
55146;SDS011;41039;49.830;23.988;2024-01-11T09:28:32;9.23;;;6.73;;
55146;SDS011;41039;49.830;23.988;2024-01-11T09:30:57;8.00;;;6.23;;
55146;SDS011;41039;49.830;23.988;2024-01-11T09:33:25;9.73;;;6.88;;
55146;SDS011;41039;49.830;23.988;2024-01-11T09:35:50;9.32;;;6.75;;
55146;SDS011;41039;49.830;23.988;2024-01-11T09:38:15;8.37;;;6.43;;
55146;SDS011;41039;49.830;23.988;2024-01-11T09:40:40;8.80;;;6.40;;
55146;SDS011;41039;49.830;23.988;2024-01-11T09:43:06;8.60;;;6.07;;
55146;SDS011;41039;49.830;23.988;2024-01-11T09:45:31;10.88;;;6.13;;
55146;SDS011;41039;49.830;23.988;2024-01-11T09:47:56;7.90;;;5.80;;
55146;SDS011;41039;49.830;23.988;2024-01-11T09:50:22;9.90;;;6.20;;
55146;SDS011;41039;49.830;23.988;2024-01-11T09:52:48;8.48;;;6.30;;
55146;SDS011;41039;49.830;23.988;2024-01-11T09:55:13;8.98;;;5.70;;
55146;SDS011;41039;49.830;23.988;2024-01-11T09:57:40;8.40;;;6.20;;
55146;SDS011;41039;49.830;23.988;2024-01-11T10:00:06;9.07;;;6.20;;
55146;SDS011;41039;49.830;23.988;2024-01-11T10:02:32;7.45;;;6.28;;
55146;SDS011;41039;49.830;23.988;2024-01-11T10:04:58;8.10;;;5.90;;
55146;SDS011;41039;49.830;23.988;2024-01-11T10:07:23;7.10;;;5.90;;
55146;SDS011;41039;49.830;23.988;2024-01-11T10:09:49;8.00;;;6.30;;
55146;SDS011;41039;49.830;23.988;2024-01-11T10:12:15;6.82;;;5.72;;
55146;SDS011;41039;49.830;23.988;2024-01-11T10:14:40;8.45;;;5.95;;
55146;SDS011;41039;49.830;23.988;2024-01-11T10:17:06;6.85;;;5.72;;
55146;SDS011;41039;49.830;23.988;2024-01-11T10:19:31;8.02;;;5.88;;
55146;SDS011;41039;49.830;23.988;2024-01-11T10:21:57;8.07;;;5.87;;
55146;SDS011;41039;49.830;23.988;2024-01-11T10:24:22;8.15;;;6.93;;
55146;SDS011;41039;49.830;23.988;2024-01-11T10:26:51;10.00;;;6.93;;
55146;SDS011;41039;49.830;23.988;2024-01-11T10:29:16;9.32;;;6.45;;
55146;SDS011;41039;49.830;23.988;2024-01-11T10:31:43;8.10;;;6.30;;
55146;SDS011;41039;49.830;23.988;2024-01-11T10:34:08;9.45;;;6.32;;
55146;SDS011;41039;49.830;23.988;2024-01-11T10:36:33;8.33;;;6.00;;
55146;SDS011;41039;49.830;23.988;2024-01-11T10:39:00;8.52;;;5.88;;
55146;SDS011;41039;49.830;23.988;2024-01-11T10:41:26;10.43;;;6.28;;
55146;SDS011;41039;49.830;23.988;2024-01-11T10:43:53;9.32;;;6.78;;
55146;SDS011;41039;49.830;23.988;2024-01-11T10:46:18;7.68;;;6.30;;
55146;SDS011;41039;49.830;23.988;2024-01-11T10:48:47;7.72;;;5.72;;
55146;SDS011;41039;49.830;23.988;2024-01-11T10:51:14;9.30;;;6.32;;
55146;SDS011;41039;49.830;23.988;2024-01-11T10:56:07;9.45;;;7.15;;
55146;SDS011;41039;49.830;23.988;2024-01-11T10:58:33;7.68;;;6.07;;
55146;SDS011;41039;49.830;23.988;2024-01-11T11:00:59;8.60;;;6.55;;
55146;SDS011;41039;49.830;23.988;2024-01-11T11:03:25;8.52;;;6.18;;
55146;SDS011;41039;49.830;23.988;2024-01-11T11:05:53;8.18;;;6.43;;
55146;SDS011;41039;49.830;23.988;2024-01-11T11:08:18;7.75;;;5.95;;
55146;SDS011;41039;49.830;23.988;2024-01-11T11:10:44;9.00;;;6.72;;
55146;SDS011;41039;49.830;23.988;2024-01-11T11:13:10;8.13;;;6.35;;
55146;SDS011;41039;49.830;23.988;2024-01-11T11:15:38;9.02;;;6.53;;
55146;SDS011;41039;49.830;23.988;2024-01-11T11:18:04;9.20;;;6.93;;
55146;SDS011;41039;49.830;23.988;2024-01-11T11:20:31;8.35;;;6.30;;
55146;SDS011;41039;49.830;23.988;2024-01-11T11:23:06;8.23;;;6.55;;
55146;SDS011;41039;49.830;23.988;2024-01-11T11:25:32;8.52;;;6.30;;
55146;SDS011;41039;49.830;23.988;2024-01-11T11:27:58;9.43;;;6.78;;
55146;SDS011;41039;49.830;23.988;2024-01-11T11:30:29;8.63;;;6.75;;
55146;SDS011;41039;49.830;23.988;2024-01-11T11:32:54;10.98;;;7.63;;
55146;SDS011;41039;49.830;23.988;2024-01-11T11:35:19;8.43;;;6.53;;
55146;SDS011;41039;49.830;23.988;2024-01-11T11:37:45;8.63;;;6.45;;
55146;SDS011;41039;49.830;23.988;2024-01-11T11:40:10;9.05;;;6.40;;
55146;SDS011;41039;49.830;23.988;2024-01-11T11:42:36;8.68;;;6.68;;
55146;SDS011;41039;49.830;23.988;2024-01-11T11:45:01;9.18;;;7.35;;
55146;SDS011;41039;49.830;23.988;2024-01-11T11:47:33;10.02;;;7.05;;
55146;SDS011;41039;49.830;23.988;2024-01-11T11:50:07;9.02;;;6.10;;
55146;SDS011;41039;49.830;23.988;2024-01-11T11:52:34;9.65;;;6.95;;
55146;SDS011;41039;49.830;23.988;2024-01-11T11:55:02;10.55;;;6.47;;
55146;SDS011;41039;49.830;23.988;2024-01-11T11:57:28;9.90;;;7.13;;
55146;SDS011;41039;49.830;23.988;2024-01-11T11:59:56;11.55;;;6.93;;
55146;SDS011;41039;49.830;23.988;2024-01-11T12:02:23;9.10;;;6.82;;
55146;SDS011;41039;49.830;23.988;2024-01-11T12:04:49;10.15;;;7.15;;
55146;SDS011;41039;49.830;23.988;2024-01-11T12:07:15;9.35;;;6.70;;
55146;SDS011;41039;49.830;23.988;2024-01-11T12:09:40;9.82;;;7.70;;
55146;SDS011;41039;49.830;23.988;2024-01-11T12:12:06;11.10;;;7.05;;
55146;SDS011;41039;49.830;23.988;2024-01-11T12:14:31;10.95;;;7.40;;
55146;SDS011;41039;49.830;23.988;2024-01-11T12:16:57;9.82;;;7.05;;
55146;SDS011;41039;49.830;23.988;2024-01-11T12:19:23;10.02;;;7.05;;
55146;SDS011;41039;49.830;23.988;2024-01-11T12:21:48;10.07;;;7.00;;
55146;SDS011;41039;49.830;23.988;2024-01-11T12:24:14;8.52;;;6.68;;
55146;SDS011;41039;49.830;23.988;2024-01-11T12:26:40;9.30;;;6.95;;
55146;SDS011;41039;49.830;23.988;2024-01-11T12:29:05;9.52;;;7.03;;
55146;SDS011;41039;49.830;23.988;2024-01-11T12:31:31;10.48;;;7.78;;
55146;SDS011;41039;49.830;23.988;2024-01-11T12:33:58;10.23;;;7.63;;
55146;SDS011;41039;49.830;23.988;2024-01-11T12:36:23;10.55;;;7.75;;
55146;SDS011;41039;49.830;23.988;2024-01-11T12:38:48;10.55;;;7.60;;
55146;SDS011;41039;49.830;23.988;2024-01-11T12:41:14;10.75;;;7.45;;
55146;SDS011;41039;49.830;23.988;2024-01-11T12:43:39;8.95;;;7.50;;
55146;SDS011;41039;49.830;23.988;2024-01-11T12:46:05;11.57;;;7.82;;
55146;SDS011;41039;49.830;23.988;2024-01-11T12:48:30;11.63;;;7.88;;
55146;SDS011;41039;49.830;23.988;2024-01-11T12:50:55;10.35;;;7.47;;
55146;SDS011;41039;49.830;23.988;2024-01-11T12:53:21;10.38;;;7.53;;
55146;SDS011;41039;49.830;23.988;2024-01-11T12:55:49;10.23;;;7.47;;
55146;SDS011;41039;49.830;23.988;2024-01-11T12:58:26;11.00;;;8.05;;
55146;SDS011;41039;49.830;23.988;2024-01-11T13:00:51;12.00;;;8.52;;
55146;SDS011;41039;49.830;23.988;2024-01-11T13:03:17;9.60;;;7.63;;
55146;SDS011;41039;49.830;23.988;2024-01-11T13:05:44;11.90;;;7.75;;
55146;SDS011;41039;49.830;23.988;2024-01-11T13:08:10;10.57;;;8.27;;
55146;SDS011;41039;49.830;23.988;2024-01-11T13:10:35;10.43;;;7.78;;
55146;SDS011;41039;49.830;23.988;2024-01-11T13:13:01;14.38;;;8.73;;
55146;SDS011;41039;49.830;23.988;2024-01-11T13:15:26;10.75;;;8.23;;
55146;SDS011;41039;49.830;23.988;2024-01-11T13:17:51;10.85;;;7.60;;
55146;SDS011;41039;49.830;23.988;2024-01-11T13:20:18;9.30;;;7.22;;
55146;SDS011;41039;49.830;23.988;2024-01-11T13:22:43;11.10;;;8.00;;
55146;SDS011;41039;49.830;23.988;2024-01-11T13:25:08;8.93;;;7.33;;
55146;SDS011;41039;49.830;23.988;2024-01-11T13:27:34;10.40;;;8.00;;
55146;SDS011;41039;49.830;23.988;2024-01-11T13:30:00;10.68;;;8.40;;
55146;SDS011;41039;49.830;23.988;2024-01-11T13:32:25;13.50;;;8.53;;
55146;SDS011;41039;49.830;23.988;2024-01-11T13:34:50;10.55;;;8.00;;
55146;SDS011;41039;49.830;23.988;2024-01-11T13:37:19;11.98;;;8.48;;
55146;SDS011;41039;49.830;23.988;2024-01-11T13:39:44;11.88;;;8.90;;
55146;SDS011;41039;49.830;23.988;2024-01-11T13:42:10;10.38;;;8.18;;
55146;SDS011;41039;49.830;23.988;2024-01-11T13:44:36;10.88;;;8.45;;
55146;SDS011;41039;49.830;23.988;2024-01-11T13:47:01;10.50;;;8.10;;
55146;SDS011;41039;49.830;23.988;2024-01-11T13:49:26;10.65;;;8.43;;
55146;SDS011;41039;49.830;23.988;2024-01-11T13:51:52;10.93;;;8.55;;
55146;SDS011;41039;49.830;23.988;2024-01-11T13:54:17;10.60;;;7.90;;
55146;SDS011;41039;49.830;23.988;2024-01-11T13:56:42;10.13;;;7.88;;
55146;SDS011;41039;49.830;23.988;2024-01-11T13:59:07;11.40;;;8.95;;
55146;SDS011;41039;49.830;23.988;2024-01-11T14:01:33;11.55;;;8.57;;
55146;SDS011;41039;49.830;23.988;2024-01-11T14:03:58;11.67;;;8.27;;
55146;SDS011;41039;49.830;23.988;2024-01-11T14:06:23;10.63;;;8.27;;
55146;SDS011;41039;49.830;23.988;2024-01-11T14:08:48;10.93;;;8.40;;
55146;SDS011;41039;49.830;23.988;2024-01-11T14:11:13;11.40;;;8.50;;
55146;SDS011;41039;49.830;23.988;2024-01-11T14:13:39;11.63;;;8.50;;
55146;SDS011;41039;49.830;23.988;2024-01-11T14:16:05;14.25;;;8.95;;
55146;SDS011;41039;49.830;23.988;2024-01-11T14:18:30;10.50;;;8.02;;
55146;SDS011;41039;49.830;23.988;2024-01-11T14:20:55;10.80;;;9.20;;
55146;SDS011;41039;49.830;23.988;2024-01-11T14:23:20;11.43;;;9.10;;
55146;SDS011;41039;49.830;23.988;2024-01-11T14:25:46;11.23;;;9.37;;